sensor_id;sensor_type;location;lat;lon;timestamp;P1;durP1;ratioP1;P2;durP2;ratioP2
16965;SDS011;8599;47.852;12.070;2023-07-20T00:02:07;7.25;;;4.20;;
16965;SDS011;8599;47.852;12.070;2023-07-20T00:04:34;11.15;;;3.67;;
16965;SDS011;8599;47.852;12.070;2023-07-20T00:07:03;13.02;;;3.72;;
16965;SDS011;8599;47.852;12.070;2023-07-20T00:09:30;5.50;;;3.28;;
16965;SDS011;8599;47.852;12.070;2023-07-20T00:11:57;7.40;;;3.65;;
16965;SDS011;8599;47.852;12.070;2023-07-20T00:14:25;8.53;;;3.70;;
16965;SDS011;8599;47.852;12.070;2023-07-20T00:16:52;7.00;;;3.77;;
16965;SDS011;8599;47.852;12.070;2023-07-20T00:19:23;5.28;;;3.90;;
16965;SDS011;8599;47.852;12.070;2023-07-20T00:21:50;5.43;;;3.65;;
16965;SDS011;8599;47.852;12.070;2023-07-20T00:24:17;5.53;;;3.43;;
16965;SDS011;8599;47.852;12.070;2023-07-20T00:26:44;5.88;;;3.63;;
16965;SDS011;8599;47.852;12.070;2023-07-20T00:29:11;3.42;;;3.10;;
16965;SDS011;8599;47.852;12.070;2023-07-20T00:31:38;9.43;;;4.35;;
16965;SDS011;8599;47.852;12.070;2023-07-20T00:34:05;6.43;;;3.60;;
16965;SDS011;8599;47.852;12.070;2023-07-20T00:36:33;6.43;;;3.60;;
16965;SDS011;8599;47.852;12.070;2023-07-20T00:39:00;6.35;;;3.45;;
16965;SDS011;8599;47.852;12.070;2023-07-20T00:41:28;5.45;;;3.50;;
16965;SDS011;8599;47.852;12.070;2023-07-20T00:43:55;5.10;;;3.50;;
16965;SDS011;8599;47.852;12.070;2023-07-20T00:46:22;6.65;;;3.42;;
16965;SDS011;8599;47.852;12.070;2023-07-20T00:48:50;4.30;;;3.30;;
16965;SDS011;8599;47.852;12.070;2023-07-20T00:51:18;10.32;;;4.00;;
16965;SDS011;8599;47.852;12.070;2023-07-20T00:53:47;5.53;;;3.50;;
16965;SDS011;8599;47.852;12.070;2023-07-20T00:56:14;5.88;;;3.40;;
16965;SDS011;8599;47.852;12.070;2023-07-20T00:58:42;5.78;;;3.47;;
16965;SDS011;8599;47.852;12.070;2023-07-20T01:01:09;9.00;;;3.75;;
16965;SDS011;8599;47.852;12.070;2023-07-20T01:03:36;4.93;;;3.00;;
16965;SDS011;8599;47.852;12.070;2023-07-20T01:06:04;8.98;;;2.90;;
16965;SDS011;8599;47.852;12.070;2023-07-20T01:08:43;5.00;;;3.20;;
16965;SDS011;8599;47.852;12.070;2023-07-20T01:11:17;3.80;;;2.93;;
16965;SDS011;8599;47.852;12.070;2023-07-20T01:13:53;5.87;;;2.97;;
16965;SDS011;8599;47.852;12.070;2023-07-20T01:16:21;11.07;;;3.47;;
16965;SDS011;8599;47.852;12.070;2023-07-20T01:18:47;6.95;;;3.17;;
16965;SDS011;8599;47.852;12.070;2023-07-20T01:21:17;4.47;;;3.17;;
16965;SDS011;8599;47.852;12.070;2023-07-20T01:24:00;6.93;;;3.38;;
16965;SDS011;8599;47.852;12.070;2023-07-20T01:26:48;3.50;;;3.20;;
16965;SDS011;8599;47.852;12.070;2023-07-20T01:29:55;3.85;;;3.00;;
16965;SDS011;8599;47.852;12.070;2023-07-20T01:32:49;6.35;;;3.75;;
16965;SDS011;8599;47.852;12.070;2023-07-20T01:35:20;3.97;;;2.70;;
16965;SDS011;8599;47.852;12.070;2023-07-20T01:37:49;5.30;;;3.25;;
16965;SDS011;8599;47.852;12.070;2023-07-20T01:40:17;7.87;;;3.30;;
16965;SDS011;8599;47.852;12.070;2023-07-20T01:42:46;5.80;;;3.35;;
16965;SDS011;8599;47.852;12.070;2023-07-20T01:45:13;6.60;;;3.30;;
16965;SDS011;8599;47.852;12.070;2023-07-20T01:47:40;5.57;;;3.03;;
16965;SDS011;8599;47.852;12.070;2023-07-20T01:50:09;6.82;;;3.10;;
16965;SDS011;8599;47.852;12.070;2023-07-20T01:52:36;9.45;;;3.58;;
16965;SDS011;8599;47.852;12.070;2023-07-20T01:55:03;9.07;;;3.10;;
16965;SDS011;8599;47.852;12.070;2023-07-20T01:57:30;5.70;;;3.53;;
16965;SDS011;8599;47.852;12.070;2023-07-20T01:59:57;10.05;;;3.60;;
16965;SDS011;8599;47.852;12.070;2023-07-20T02:02:26;5.03;;;2.95;;
16965;SDS011;8599;47.852;12.070;2023-07-20T02:04:53;6.70;;;3.08;;
16965;SDS011;8599;47.852;12.070;2023-07-20T02:07:21;4.97;;;3.00;;
16965;SDS011;8599;47.852;12.070;2023-07-20T02:09:48;7.72;;;3.22;;
16965;SDS011;8599;47.852;12.070;2023-07-20T02:12:15;3.83;;;2.90;;
16965;SDS011;8599;47.852;12.070;2023-07-20T02:14:42;5.25;;;3.40;;
16965;SDS011;8599;47.852;12.070;2023-07-20T02:17:08;6.28;;;3.17;;
16965;SDS011;8599;47.852;12.070;2023-07-20T02:19:36;5.80;;;3.60;;
16965;SDS011;8599;47.852;12.070;2023-07-20T02:22:03;9.25;;;4.28;;
16965;SDS011;8599;47.852;12.070;2023-07-20T02:24:32;6.63;;;3.30;;
16965;SDS011;8599;47.852;12.070;2023-07-20T02:26:59;7.05;;;3.35;;
16965;SDS011;8599;47.852;12.070;2023-07-20T02:29:26;4.93;;;3.13;;
16965;SDS011;8599;47.852;12.070;2023-07-20T02:31:53;10.18;;;3.70;;
16965;SDS011;8599;47.852;12.070;2023-07-20T02:34:20;6.90;;;3.03;;
16965;SDS011;8599;47.852;12.070;2023-07-20T02:36:46;4.75;;;3.17;;
16965;SDS011;8599;47.852;12.070;2023-07-20T02:39:13;3.45;;;3.15;;
16965;SDS011;8599;47.852;12.070;2023-07-20T02:41:41;5.82;;;3.17;;
16965;SDS011;8599;47.852;12.070;2023-07-20T02:44:08;4.75;;;3.20;;
16965;SDS011;8599;47.852;12.070;2023-07-20T02:46:35;3.28;;;2.88;;
16965;SDS011;8599;47.852;12.070;2023-07-20T02:49:02;4.22;;;3.10;;
16965;SDS011;8599;47.852;12.070;2023-07-20T02:51:29;10.68;;;3.42;;
16965;SDS011;8599;47.852;12.070;2023-07-20T02:53:56;5.53;;;3.13;;
16965;SDS011;8599;47.852;12.070;2023-07-20T02:56:22;6.00;;;3.03;;
16965;SDS011;8599;47.852;12.070;2023-07-20T02:58:51;6.13;;;3.33;;
16965;SDS011;8599;47.852;12.070;2023-07-20T03:01:18;3.15;;;2.83;;
16965;SDS011;8599;47.852;12.070;2023-07-20T03:03:45;12.82;;;3.50;;
16965;SDS011;8599;47.852;12.070;2023-07-20T03:06:12;5.95;;;3.63;;
16965;SDS011;8599;47.852;12.070;2023-07-20T03:08:39;6.43;;;3.30;;
16965;SDS011;8599;47.852;12.070;2023-07-20T03:11:12;6.88;;;3.17;;
16965;SDS011;8599;47.852;12.070;2023-07-20T03:13:39;6.65;;;3.50;;
16965;SDS011;8599;47.852;12.070;2023-07-20T03:16:07;5.25;;;3.10;;
16965;SDS011;8599;47.852;12.070;2023-07-20T03:18:36;7.70;;;3.17;;
16965;SDS011;8599;47.852;12.070;2023-07-20T03:21:03;8.93;;;3.40;;
16965;SDS011;8599;47.852;12.070;2023-07-20T03:23:30;6.15;;;2.97;;
16965;SDS011;8599;47.852;12.070;2023-07-20T03:25:57;6.07;;;3.42;;
16965;SDS011;8599;47.852;12.070;2023-07-20T03:28:24;6.28;;;3.20;;
16965;SDS011;8599;47.852;12.070;2023-07-20T03:30:52;12.02;;;3.30;;
16965;SDS011;8599;47.852;12.070;2023-07-20T03:33:22;4.63;;;2.75;;
16965;SDS011;8599;47.852;12.070;2023-07-20T03:35:52;3.65;;;3.15;;
16965;SDS011;8599;47.852;12.070;2023-07-20T03:38:19;3.17;;;2.88;;
16965;SDS011;8599;47.852;12.070;2023-07-20T03:40:50;4.72;;;3.20;;
16965;SDS011;8599;47.852;12.070;2023-07-20T03:43:17;4.32;;;2.88;;
16965;SDS011;8599;47.852;12.070;2023-07-20T03:45:44;5.18;;;2.47;;
16965;SDS011;8599;47.852;12.070;2023-07-20T03:48:13;3.35;;;2.88;;
16965;SDS011;8599;47.852;12.070;2023-07-20T03:50:41;7.38;;;3.05;;
16965;SDS011;8599;47.852;12.070;2023-07-20T03:53:08;5.32;;;3.00;;
16965;SDS011;8599;47.852;12.070;2023-07-20T03:55:35;3.10;;;2.80;;
16965;SDS011;8599;47.852;12.070;2023-07-20T03:58:01;3.80;;;2.30;;
16965;SDS011;8599;47.852;12.070;2023-07-20T04:00:28;3.75;;;2.53;;
16965;SDS011;8599;47.852;12.070;2023-07-20T04:02:55;5.43;;;3.50;;
16965;SDS011;8599;47.852;12.070;2023-07-20T04:05:22;5.18;;;3.05;;
16965;SDS011;8599;47.852;12.070;2023-07-20T04:07:50;5.45;;;3.10;;
16965;SDS011;8599;47.852;12.070;2023-07-20T04:10:17;7.70;;;2.72;;
16965;SDS011;8599;47.852;12.070;2023-07-20T04:12:44;4.40;;;3.00;;
16965;SDS011;8599;47.852;12.070;2023-07-20T04:15:12;6.95;;;2.80;;
16965;SDS011;8599;47.852;12.070;2023-07-20T04:17:39;3.83;;;3.10;;
16965;SDS011;8599;47.852;12.070;2023-07-20T04:20:07;4.50;;;2.90;;
16965;SDS011;8599;47.852;12.070;2023-07-20T04:22:34;6.70;;;3.15;;
16965;SDS011;8599;47.852;12.070;2023-07-20T04:25:03;5.13;;;3.05;;
16965;SDS011;8599;47.852;12.070;2023-07-20T04:27:30;8.20;;;3.20;;
16965;SDS011;8599;47.852;12.070;2023-07-20T04:29:57;8.65;;;2.80;;
16965;SDS011;8599;47.852;12.070;2023-07-20T04:32:25;3.63;;;2.43;;
16965;SDS011;8599;47.852;12.070;2023-07-20T04:34:52;5.38;;;3.05;;
16965;SDS011;8599;47.852;12.070;2023-07-20T04:37:18;4.63;;;3.40;;
16965;SDS011;8599;47.852;12.070;2023-07-20T04:39:45;13.00;;;3.07;;
16965;SDS011;8599;47.852;12.070;2023-07-20T04:42:13;3.27;;;2.50;;
16965;SDS011;8599;47.852;12.070;2023-07-20T04:44:40;5.47;;;2.60;;
16965;SDS011;8599;47.852;12.070;2023-07-20T04:47:07;8.63;;;3.07;;
16965;SDS011;8599;47.852;12.070;2023-07-20T04:49:34;3.63;;;2.80;;
16965;SDS011;8599;47.852;12.070;2023-07-20T04:52:01;7.10;;;2.63;;
16965;SDS011;8599;47.852;12.070;2023-07-20T04:54:28;10.27;;;2.80;;
16965;SDS011;8599;47.852;12.070;2023-07-20T04:56:55;5.13;;;2.90;;
16965;SDS011;8599;47.852;12.070;2023-07-20T04:59:23;9.33;;;2.70;;
16965;SDS011;8599;47.852;12.070;2023-07-20T05:01:50;3.70;;;2.60;;
16965;SDS011;8599;47.852;12.070;2023-07-20T05:04:17;4.93;;;2.67;;
16965;SDS011;8599;47.852;12.070;2023-07-20T05:06:44;7.93;;;3.40;;
16965;SDS011;8599;47.852;12.070;2023-07-20T05:09:11;10.30;;;3.60;;
16965;SDS011;8599;47.852;12.070;2023-07-20T05:11:38;7.93;;;3.60;;
16965;SDS011;8599;47.852;12.070;2023-07-20T05:14:05;15.15;;;4.13;;
16965;SDS011;8599;47.852;12.070;2023-07-20T05:16:33;11.95;;;3.78;;
16965;SDS011;8599;47.852;12.070;2023-07-20T05:19:00;9.38;;;3.22;;
16965;SDS011;8599;47.852;12.070;2023-07-20T05:21:26;9.30;;;3.53;;
16965;SDS011;8599;47.852;12.070;2023-07-20T05:23:53;13.93;;;3.30;;
16965;SDS011;8599;47.852;12.070;2023-07-20T05:26:20;11.17;;;3.00;;
16965;SDS011;8599;47.852;12.070;2023-07-20T05:28:47;6.68;;;2.65;;
16965;SDS011;8599;47.852;12.070;2023-07-20T05:31:13;8.70;;;2.73;;
16965;SDS011;8599;47.852;12.070;2023-07-20T05:33:42;6.87;;;2.53;;
16965;SDS011;8599;47.852;12.070;2023-07-20T05:36:08;3.60;;;2.60;;
16965;SDS011;8599;47.852;12.070;2023-07-20T05:38:35;8.27;;;2.43;;
16965;SDS011;8599;47.852;12.070;2023-07-20T05:41:02;3.95;;;2.20;;
16965;SDS011;8599;47.852;12.070;2023-07-20T05:43:29;9.13;;;2.90;;
16965;SDS011;8599;47.852;12.070;2023-07-20T05:45:56;6.13;;;2.10;;
16965;SDS011;8599;47.852;12.070;2023-07-20T05:48:23;5.25;;;2.20;;
16965;SDS011;8599;47.852;12.070;2023-07-20T05:50:51;4.63;;;2.20;;
16965;SDS011;8599;47.852;12.070;2023-07-20T05:53:18;6.27;;;2.07;;
16965;SDS011;8599;47.852;12.070;2023-07-20T05:55:51;1.93;;;1.80;;
16965;SDS011;8599;47.852;12.070;2023-07-20T05:58:18;3.73;;;2.03;;
16965;SDS011;8599;47.852;12.070;2023-07-20T06:00:47;2.67;;;1.67;;
16965;SDS011;8599;47.852;12.070;2023-07-20T06:03:14;3.15;;;2.05;;
16965;SDS011;8599;47.852;12.070;2023-07-20T06:05:41;2.78;;;1.80;;
16965;SDS011;8599;47.852;12.070;2023-07-20T06:08:09;3.73;;;1.80;;
16965;SDS011;8599;47.852;12.070;2023-07-20T06:10:36;10.87;;;2.80;;
16965;SDS011;8599;47.852;12.070;2023-07-20T06:13:03;4.23;;;2.10;;
16965;SDS011;8599;47.852;12.070;2023-07-20T06:15:31;5.23;;;2.77;;
16965;SDS011;8599;47.852;12.070;2023-07-20T06:18:00;5.30;;;2.47;;
16965;SDS011;8599;47.852;12.070;2023-07-20T06:20:28;10.30;;;4.50;;
16965;SDS011;8599;47.852;12.070;2023-07-20T06:22:55;5.93;;;3.17;;
16965;SDS011;8599;47.852;12.070;2023-07-20T06:25:24;5.03;;;2.80;;
16965;SDS011;8599;47.852;12.070;2023-07-20T06:27:50;8.37;;;3.17;;
16965;SDS011;8599;47.852;12.070;2023-07-20T06:30:17;5.00;;;2.15;;
16965;SDS011;8599;47.852;12.070;2023-07-20T06:32:44;3.37;;;2.20;;
16965;SDS011;8599;47.852;12.070;2023-07-20T06:35:11;4.73;;;2.70;;
16965;SDS011;8599;47.852;12.070;2023-07-20T06:37:38;7.57;;;2.87;;
16965;SDS011;8599;47.852;12.070;2023-07-20T06:40:05;8.17;;;3.03;;
16965;SDS011;8599;47.852;12.070;2023-07-20T06:42:35;6.83;;;2.83;;
16965;SDS011;8599;47.852;12.070;2023-07-20T06:45:02;5.80;;;2.70;;
16965;SDS011;8599;47.852;12.070;2023-07-20T06:47:29;5.75;;;2.60;;
16965;SDS011;8599;47.852;12.070;2023-07-20T06:49:56;9.27;;;2.60;;
16965;SDS011;8599;47.852;12.070;2023-07-20T06:52:23;5.75;;;2.72;;
16965;SDS011;8599;47.852;12.070;2023-07-20T06:54:50;7.32;;;2.42;;
16965;SDS011;8599;47.852;12.070;2023-07-20T06:57:17;10.80;;;2.50;;
16965;SDS011;8599;47.852;12.070;2023-07-20T06:59:45;4.97;;;2.10;;
16965;SDS011;8599;47.852;12.070;2023-07-20T07:02:12;3.80;;;2.10;;
16965;SDS011;8599;47.852;12.070;2023-07-20T07:04:39;2.30;;;1.90;;
16965;SDS011;8599;47.852;12.070;2023-07-20T07:07:06;2.65;;;1.75;;
16965;SDS011;8599;47.852;12.070;2023-07-20T07:09:33;2.67;;;2.00;;
16965;SDS011;8599;47.852;12.070;2023-07-20T07:12:00;2.33;;;2.10;;
16965;SDS011;8599;47.852;12.070;2023-07-20T07:14:28;5.53;;;2.85;;
16965;SDS011;8599;47.852;12.070;2023-07-20T07:16:56;3.07;;;1.97;;
16965;SDS011;8599;47.852;12.070;2023-07-20T07:19:23;3.27;;;1.97;;
16965;SDS011;8599;47.852;12.070;2023-07-20T07:21:50;2.37;;;1.77;;
16965;SDS011;8599;47.852;12.070;2023-07-20T07:24:17;7.07;;;2.30;;
16965;SDS011;8599;47.852;12.070;2023-07-20T07:26:44;5.20;;;2.17;;
16965;SDS011;8599;47.852;12.070;2023-07-20T07:29:11;3.47;;;2.20;;
16965;SDS011;8599;47.852;12.070;2023-07-20T07:31:37;7.53;;;2.67;;
16965;SDS011;8599;47.852;12.070;2023-07-20T07:34:06;3.45;;;2.25;;
16965;SDS011;8599;47.852;12.070;2023-07-20T07:36:32;3.67;;;2.10;;
16965;SDS011;8599;47.852;12.070;2023-07-20T07:38:59;3.47;;;2.40;;
16965;SDS011;8599;47.852;12.070;2023-07-20T07:41:26;3.70;;;1.93;;
16965;SDS011;8599;47.852;12.070;2023-07-20T07:43:53;4.15;;;2.75;;
16965;SDS011;8599;47.852;12.070;2023-07-20T07:46:20;2.33;;;1.75;;
16965;SDS011;8599;47.852;12.070;2023-07-20T07:48:46;5.03;;;2.42;;
16965;SDS011;8599;47.852;12.070;2023-07-20T07:51:15;5.30;;;2.30;;
16965;SDS011;8599;47.852;12.070;2023-07-20T07:53:41;3.63;;;2.08;;
16965;SDS011;8599;47.852;12.070;2023-07-20T07:56:09;3.85;;;1.92;;
16965;SDS011;8599;47.852;12.070;2023-07-20T07:58:36;4.85;;;2.42;;
16965;SDS011;8599;47.852;12.070;2023-07-20T08:01:03;3.13;;;2.03;;
16965;SDS011;8599;47.852;12.070;2023-07-20T08:03:29;3.37;;;2.07;;
16965;SDS011;8599;47.852;12.070;2023-07-20T08:05:56;2.72;;;1.83;;
16965;SDS011;8599;47.852;12.070;2023-07-20T08:08:25;3.80;;;1.60;;
16965;SDS011;8599;47.852;12.070;2023-07-20T08:10:52;2.50;;;1.80;;
16965;SDS011;8599;47.852;12.070;2023-07-20T08:13:20;3.58;;;1.90;;
16965;SDS011;8599;47.852;12.070;2023-07-20T08:15:48;2.97;;;1.65;;
16965;SDS011;8599;47.852;12.070;2023-07-20T08:18:16;7.20;;;1.83;;
16965;SDS011;8599;47.852;12.070;2023-07-20T08:20:43;2.67;;;1.58;;
16965;SDS011;8599;47.852;12.070;2023-07-20T08:23:10;1.83;;;1.52;;
16965;SDS011;8599;47.852;12.070;2023-07-20T08:25:38;2.95;;;1.80;;
16965;SDS011;8599;47.852;12.070;2023-07-20T08:28:09;2.63;;;1.80;;
16965;SDS011;8599;47.852;12.070;2023-07-20T08:30:39;2.88;;;1.70;;
16965;SDS011;8599;47.852;12.070;2023-07-20T08:33:07;2.95;;;2.00;;
16965;SDS011;8599;47.852;12.070;2023-07-20T08:35:35;4.65;;;1.77;;
16965;SDS011;8599;47.852;12.070;2023-07-20T08:38:02;6.13;;;1.70;;
16965;SDS011;8599;47.852;12.070;2023-07-20T08:40:29;3.40;;;1.92;;
16965;SDS011;8599;47.852;12.070;2023-07-20T08:42:58;3.95;;;2.00;;
16965;SDS011;8599;47.852;12.070;2023-07-20T08:45:26;2.90;;;1.75;;
16965;SDS011;8599;47.852;12.070;2023-07-20T08:47:55;3.28;;;1.70;;
16965;SDS011;8599;47.852;12.070;2023-07-20T08:50:24;7.63;;;2.05;;
16965;SDS011;8599;47.852;12.070;2023-07-20T08:52:52;6.82;;;2.05;;
16965;SDS011;8599;47.852;12.070;2023-07-20T08:55:20;6.32;;;2.08;;
16965;SDS011;8599;47.852;12.070;2023-07-20T08:57:47;2.13;;;1.75;;
16965;SDS011;8599;47.852;12.070;2023-07-20T09:00:18;5.13;;;1.75;;
16965;SDS011;8599;47.852;12.070;2023-07-20T09:02:48;2.58;;;1.90;;
16965;SDS011;8599;47.852;12.070;2023-07-20T09:05:16;2.70;;;1.60;;
16965;SDS011;8599;47.852;12.070;2023-07-20T09:07:43;3.55;;;1.88;;
16965;SDS011;8599;47.852;12.070;2023-07-20T09:10:10;2.42;;;1.52;;
16965;SDS011;8599;47.852;12.070;2023-07-20T09:12:38;2.17;;;1.50;;
16965;SDS011;8599;47.852;12.070;2023-07-20T09:15:06;1.98;;;1.55;;
16965;SDS011;8599;47.852;12.070;2023-07-20T09:17:35;6.30;;;1.85;;
16965;SDS011;8599;47.852;12.070;2023-07-20T09:20:03;3.25;;;2.08;;
16965;SDS011;8599;47.852;12.070;2023-07-20T09:22:35;2.10;;;1.58;;
16965;SDS011;8599;47.852;12.070;2023-07-20T09:25:05;2.47;;;1.55;;
16965;SDS011;8599;47.852;12.070;2023-07-20T09:27:35;7.22;;;1.67;;
16965;SDS011;8599;47.852;12.070;2023-07-20T09:30:03;6.13;;;1.80;;
16965;SDS011;8599;47.852;12.070;2023-07-20T09:32:34;2.17;;;1.77;;
16965;SDS011;8599;47.852;12.070;2023-07-20T09:35:07;3.15;;;1.30;;
16965;SDS011;8599;47.852;12.070;2023-07-20T09:37:39;1.65;;;1.55;;
16965;SDS011;8599;47.852;12.070;2023-07-20T09:40:07;1.85;;;1.55;;
16965;SDS011;8599;47.852;12.070;2023-07-20T09:42:35;2.00;;;1.63;;
16965;SDS011;8599;47.852;12.070;2023-07-20T09:45:03;7.97;;;1.70;;
16965;SDS011;8599;47.852;12.070;2023-07-20T09:47:34;4.50;;;1.60;;
16965;SDS011;8599;47.852;12.070;2023-07-20T09:50:04;4.53;;;1.88;;
16965;SDS011;8599;47.852;12.070;2023-07-20T09:52:35;3.10;;;1.60;;
16965;SDS011;8599;47.852;12.070;2023-07-20T09:55:06;5.05;;;1.77;;
16965;SDS011;8599;47.852;12.070;2023-07-20T09:57:33;1.42;;;1.33;;
16965;SDS011;8599;47.852;12.070;2023-07-20T10:00:01;2.90;;;1.45;;
16965;SDS011;8599;47.852;12.070;2023-07-20T10:02:33;2.55;;;1.63;;
16965;SDS011;8599;47.852;12.070;2023-07-20T10:05:04;3.60;;;1.90;;
16965;SDS011;8599;47.852;12.070;2023-07-20T10:07:33;1.50;;;1.40;;
16965;SDS011;8599;47.852;12.070;2023-07-20T10:10:02;2.33;;;1.48;;
16965;SDS011;8599;47.852;12.070;2023-07-20T10:12:30;2.92;;;1.33;;
16965;SDS011;8599;47.852;12.070;2023-07-20T10:14:59;1.85;;;1.30;;
16965;SDS011;8599;47.852;12.070;2023-07-20T10:17:36;2.38;;;1.70;;
16965;SDS011;8599;47.852;12.070;2023-07-20T10:20:08;2.25;;;1.77;;
16965;SDS011;8599;47.852;12.070;2023-07-20T10:22:36;2.60;;;1.60;;
16965;SDS011;8599;47.852;12.070;2023-07-20T10:25:04;2.55;;;1.48;;
16965;SDS011;8599;47.852;12.070;2023-07-20T10:27:33;6.00;;;1.65;;
16965;SDS011;8599;47.852;12.070;2023-07-20T10:30:00;4.68;;;1.50;;
16965;SDS011;8599;47.852;12.070;2023-07-20T10:32:29;3.90;;;1.70;;
16965;SDS011;8599;47.852;12.070;2023-07-20T10:34:56;2.75;;;1.65;;
16965;SDS011;8599;47.852;12.070;2023-07-20T10:40:23;5.63;;;1.70;;
16965;SDS011;8599;47.852;12.070;2023-07-20T10:42:58;2.92;;;1.52;;
16965;SDS011;8599;47.852;12.070;2023-07-20T10:45:33;5.63;;;2.00;;
16965;SDS011;8599;47.852;12.070;2023-07-20T10:48:14;3.40;;;1.88;;
16965;SDS011;8599;47.852;12.070;2023-07-20T10:50:42;4.57;;;1.45;;
16965;SDS011;8599;47.852;12.070;2023-07-20T10:53:11;3.33;;;1.92;;
16965;SDS011;8599;47.852;12.070;2023-07-20T10:55:42;6.68;;;1.67;;
16965;SDS011;8599;47.852;12.070;2023-07-20T10:58:11;6.15;;;1.77;;
16965;SDS011;8599;47.852;12.070;2023-07-20T11:01:00;1.98;;;1.35;;
16965;SDS011;8599;47.852;12.070;2023-07-20T11:03:28;2.80;;;1.75;;
16965;SDS011;8599;47.852;12.070;2023-07-20T11:05:56;4.93;;;1.90;;
16965;SDS011;8599;47.852;12.070;2023-07-20T11:08:39;6.13;;;1.92;;
16965;SDS011;8599;47.852;12.070;2023-07-20T11:11:23;8.02;;;1.48;;
16965;SDS011;8599;47.852;12.070;2023-07-20T11:13:54;3.28;;;1.60;;
16965;SDS011;8599;47.852;12.070;2023-07-20T11:16:32;4.55;;;1.63;;
16965;SDS011;8599;47.852;12.070;2023-07-20T11:19:01;1.67;;;1.35;;
16965;SDS011;8599;47.852;12.070;2023-07-20T11:21:28;2.70;;;2.05;;
16965;SDS011;8599;47.852;12.070;2023-07-20T11:23:57;5.00;;;2.05;;
16965;SDS011;8599;47.852;12.070;2023-07-20T11:26:23;2.75;;;1.73;;
16965;SDS011;8599;47.852;12.070;2023-07-20T11:28:50;3.20;;;1.65;;
16965;SDS011;8599;47.852;12.070;2023-07-20T11:31:17;3.08;;;1.65;;
16965;SDS011;8599;47.852;12.070;2023-07-20T11:33:44;1.85;;;1.48;;
16965;SDS011;8599;47.852;12.070;2023-07-20T11:36:12;3.15;;;2.35;;
16965;SDS011;8599;47.852;12.070;2023-07-20T11:38:40;3.70;;;1.88;;
16965;SDS011;8599;47.852;12.070;2023-07-20T11:41:10;4.18;;;2.00;;
16965;SDS011;8599;47.852;12.070;2023-07-20T11:43:37;3.50;;;1.77;;
16965;SDS011;8599;47.852;12.070;2023-07-20T11:46:05;2.08;;;1.75;;
16965;SDS011;8599;47.852;12.070;2023-07-20T11:48:32;3.63;;;1.85;;
16965;SDS011;8599;47.852;12.070;2023-07-20T11:50:59;2.20;;;1.70;;
16965;SDS011;8599;47.852;12.070;2023-07-20T11:53:26;5.05;;;2.05;;
16965;SDS011;8599;47.852;12.070;2023-07-20T11:55:53;3.20;;;1.88;;
16965;SDS011;8599;47.852;12.070;2023-07-20T11:58:21;2.55;;;1.77;;
16965;SDS011;8599;47.852;12.070;2023-07-20T12:00:48;2.33;;;1.73;;
16965;SDS011;8599;47.852;12.070;2023-07-20T12:03:15;2.92;;;1.73;;
16965;SDS011;8599;47.852;12.070;2023-07-20T12:05:42;3.55;;;1.70;;
16965;SDS011;8599;47.852;12.070;2023-07-20T12:08:09;4.85;;;2.10;;
16965;SDS011;8599;47.852;12.070;2023-07-20T12:10:38;5.40;;;1.65;;
16965;SDS011;8599;47.852;12.070;2023-07-20T12:13:09;4.43;;;1.90;;
16965;SDS011;8599;47.852;12.070;2023-07-20T12:15:38;9.68;;;2.08;;
16965;SDS011;8599;47.852;12.070;2023-07-20T12:18:05;4.97;;;1.90;;
16965;SDS011;8599;47.852;12.070;2023-07-20T12:20:33;2.10;;;1.48;;
16965;SDS011;8599;47.852;12.070;2023-07-20T12:23:02;3.60;;;1.98;;
16965;SDS011;8599;47.852;12.070;2023-07-20T12:25:36;3.92;;;1.90;;
16965;SDS011;8599;47.852;12.070;2023-07-20T12:28:04;2.58;;;1.60;;
16965;SDS011;8599;47.852;12.070;2023-07-20T12:30:31;3.30;;;1.92;;
16965;SDS011;8599;47.852;12.070;2023-07-20T12:33:00;1.98;;;1.70;;
16965;SDS011;8599;47.852;12.070;2023-07-20T12:35:27;2.10;;;1.90;;
16965;SDS011;8599;47.852;12.070;2023-07-20T12:37:55;2.42;;;2.10;;
16965;SDS011;8599;47.852;12.070;2023-07-20T12:40:24;2.30;;;1.80;;
16965;SDS011;8599;47.852;12.070;2023-07-20T12:42:51;3.67;;;1.88;;
16965;SDS011;8599;47.852;12.070;2023-07-20T12:45:18;1.77;;;1.67;;
16965;SDS011;8599;47.852;12.070;2023-07-20T12:47:45;4.18;;;1.70;;
16965;SDS011;8599;47.852;12.070;2023-07-20T12:50:13;2.17;;;1.98;;
16965;SDS011;8599;47.852;12.070;2023-07-20T12:52:40;2.35;;;1.65;;
16965;SDS011;8599;47.852;12.070;2023-07-20T12:55:07;4.45;;;2.35;;
16965;SDS011;8599;47.852;12.070;2023-07-20T12:57:35;6.10;;;2.15;;
16965;SDS011;8599;47.852;12.070;2023-07-20T13:00:03;3.42;;;1.90;;
16965;SDS011;8599;47.852;12.070;2023-07-20T13:02:32;2.80;;;1.80;;
16965;SDS011;8599;47.852;12.070;2023-07-20T13:04:59;4.80;;;2.50;;
16965;SDS011;8599;47.852;12.070;2023-07-20T13:07:31;4.22;;;2.08;;
16965;SDS011;8599;47.852;12.070;2023-07-20T13:09:59;3.40;;;1.83;;
16965;SDS011;8599;47.852;12.070;2023-07-20T13:12:27;2.92;;;2.20;;
16965;SDS011;8599;47.852;12.070;2023-07-20T13:14:55;2.50;;;1.70;;
16965;SDS011;8599;47.852;12.070;2023-07-20T13:17:25;5.15;;;2.22;;
16965;SDS011;8599;47.852;12.070;2023-07-20T13:19:52;2.30;;;2.10;;
16965;SDS011;8599;47.852;12.070;2023-07-20T13:22:19;2.63;;;2.00;;
16965;SDS011;8599;47.852;12.070;2023-07-20T13:24:47;4.20;;;2.20;;
16965;SDS011;8599;47.852;12.070;2023-07-20T13:27:15;2.38;;;2.10;;
16965;SDS011;8599;47.852;12.070;2023-07-20T13:29:42;5.25;;;2.30;;
16965;SDS011;8599;47.852;12.070;2023-07-20T13:32:09;8.60;;;2.10;;
16965;SDS011;8599;47.852;12.070;2023-07-20T13:34:36;8.50;;;2.58;;
16965;SDS011;8599;47.852;12.070;2023-07-20T13:37:03;4.45;;;3.00;;
16965;SDS011;8599;47.852;12.070;2023-07-20T13:39:30;2.75;;;2.22;;
16965;SDS011;8599;47.852;12.070;2023-07-20T13:41:59;5.00;;;2.28;;
16965;SDS011;8599;47.852;12.070;2023-07-20T13:44:27;2.65;;;2.00;;
16965;SDS011;8599;47.852;12.070;2023-07-20T13:46:54;2.30;;;1.98;;
16965;SDS011;8599;47.852;12.070;2023-07-20T13:49:21;9.75;;;2.90;;
16965;SDS011;8599;47.852;12.070;2023-07-20T13:51:48;2.25;;;2.03;;
16965;SDS011;8599;47.852;12.070;2023-07-20T13:54:15;3.45;;;2.05;;
16965;SDS011;8599;47.852;12.070;2023-07-20T13:56:42;4.05;;;2.22;;
16965;SDS011;8599;47.852;12.070;2023-07-20T13:59:10;3.17;;;2.13;;
16965;SDS011;8599;47.852;12.070;2023-07-20T14:01:37;4.13;;;2.10;;
16965;SDS011;8599;47.852;12.070;2023-07-20T14:04:04;2.08;;;1.83;;
16965;SDS011;8599;47.852;12.070;2023-07-20T14:06:31;5.28;;;2.10;;
16965;SDS011;8599;47.852;12.070;2023-07-20T14:08:59;1.80;;;1.70;;
16965;SDS011;8599;47.852;12.070;2023-07-20T14:11:26;4.35;;;2.10;;
16965;SDS011;8599;47.852;12.070;2023-07-20T14:13:53;3.05;;;1.77;;
16965;SDS011;8599;47.852;12.070;2023-07-20T14:16:21;3.05;;;1.92;;
16965;SDS011;8599;47.852;12.070;2023-07-20T14:18:48;2.22;;;1.85;;
16965;SDS011;8599;47.852;12.070;2023-07-20T14:21:15;4.47;;;2.42;;
16965;SDS011;8599;47.852;12.070;2023-07-20T14:23:44;3.17;;;2.22;;
16965;SDS011;8599;47.852;12.070;2023-07-20T14:26:12;2.97;;;2.20;;
16965;SDS011;8599;47.852;12.070;2023-07-20T14:28:38;2.33;;;1.98;;
16965;SDS011;8599;47.852;12.070;2023-07-20T14:31:05;5.35;;;1.92;;
16965;SDS011;8599;47.852;12.070;2023-07-20T14:33:33;7.70;;;2.35;;
16965;SDS011;8599;47.852;12.070;2023-07-20T14:36:00;2.30;;;1.92;;
16965;SDS011;8599;47.852;12.070;2023-07-20T14:38:27;3.17;;;1.98;;
16965;SDS011;8599;47.852;12.070;2023-07-20T14:40:54;5.15;;;1.83;;
16965;SDS011;8599;47.852;12.070;2023-07-20T14:43:21;5.07;;;2.00;;
16965;SDS011;8599;47.852;12.070;2023-07-20T14:45:48;2.17;;;1.85;;
16965;SDS011;8599;47.852;12.070;2023-07-20T14:48:15;3.08;;;1.73;;
16965;SDS011;8599;47.852;12.070;2023-07-20T14:50:43;2.28;;;1.75;;
16965;SDS011;8599;47.852;12.070;2023-07-20T14:53:10;2.58;;;1.70;;
16965;SDS011;8599;47.852;12.070;2023-07-20T14:55:37;3.28;;;2.17;;
16965;SDS011;8599;47.852;12.070;2023-07-20T14:58:04;8.30;;;1.88;;